createdAt,value
2019-04-26T00:01:52.180Z,31.30
2019-04-26T00:04:22.177Z,37.60
2019-04-26T00:06:51.666Z,35.70
2019-04-26T00:09:29.057Z,35.88
2019-04-26T00:12:29.892Z,36.30
2019-04-26T00:15:19.182Z,30.32
2019-04-26T00:17:56.232Z,32.90
2019-04-26T00:20:25.788Z,33.88
2019-04-26T00:22:55.265Z,34.15
2019-04-26T00:25:24.704Z,36.68
2019-04-26T00:27:54.368Z,37.10
2019-04-26T00:30:23.824Z,39.60
2019-04-26T00:32:53.312Z,37.13
2019-04-26T00:35:23.118Z,42.53
2019-04-26T00:37:52.557Z,32.20
2019-04-26T00:40:22.465Z,35.77
2019-04-26T00:42:53.586Z,31.87
2019-04-26T00:45:23.956Z,33.92
2019-04-26T00:47:54.428Z,36.73
2019-04-26T00:50:23.876Z,38.40
2019-04-26T00:52:53.924Z,37.03
2019-04-26T00:55:23.918Z,35.15
2019-04-26T00:57:53.859Z,36.00
2019-04-26T01:00:24.187Z,33.35
2019-04-26T01:02:56.178Z,41.28
2019-04-26T01:05:26.248Z,35.65
2019-04-26T01:07:57.356Z,39.45
2019-04-26T01:10:26.780Z,38.17
2019-04-26T01:12:56.241Z,42.93
2019-04-26T01:15:26.633Z,38.75
2019-04-26T01:17:56.396Z,33.63
2019-04-26T01:20:28.484Z,38.00
2019-04-26T01:23:00.884Z,41.05
2019-04-26T01:25:39.970Z,32.63
2019-04-26T01:28:13.656Z,31.65
2019-04-26T01:30:44.922Z,40.52
2019-04-26T01:33:15.130Z,45.35
2019-04-26T01:35:44.776Z,32.48
2019-04-26T01:38:16.266Z,41.37
2019-04-26T01:40:49.007Z,34.25
2019-04-26T01:43:53.322Z,33.10
2019-04-26T01:46:31.031Z,37.75
2019-04-26T01:49:04.550Z,38.28
2019-04-26T01:51:39.177Z,35.85
2019-04-26T01:54:11.757Z,35.00
2019-04-26T01:56:41.713Z,38.48
2019-04-26T01:59:13.907Z,39.13
2019-04-26T02:01:56.121Z,42.30
2019-04-26T02:04:28.553Z,43.80
2019-04-26T02:06:58.114Z,42.35
2019-04-26T02:09:28.410Z,41.90
2019-04-26T02:11:57.835Z,40.78
2019-04-26T02:14:28.965Z,43.15
2019-04-26T02:16:59.423Z,41.80
2019-04-26T02:19:29.564Z,42.08
2019-04-26T02:22:07.861Z,36.08
2019-04-26T02:24:40.162Z,44.93
2019-04-26T02:27:35.005Z,40.40
2019-04-26T02:30:09.000Z,44.53
2019-04-26T02:32:39.950Z,41.08
2019-04-26T02:35:09.991Z,44.98
2019-04-26T02:37:39.598Z,40.00
2019-04-26T02:40:14.425Z,43.47
2019-04-26T02:42:45.448Z,38.75
2019-04-26T02:46:09.239Z,36.55
2019-04-26T02:49:35.093Z,35.55
2019-04-26T02:52:25.315Z,45.45
2019-04-26T02:55:03.641Z,35.70
2019-04-26T02:57:40.271Z,39.92
2019-04-26T03:00:13.358Z,37.55
2019-04-26T03:02:44.676Z,36.77
2019-04-26T03:05:35.666Z,35.40
2019-04-26T03:08:15.498Z,41.05
2019-04-26T03:10:59.069Z,37.88
2019-04-26T03:13:54.773Z,38.27
2019-04-26T03:16:45.462Z,45.50
2019-04-26T03:19:47.168Z,44.10
2019-04-26T03:22:31.938Z,38.25
2019-04-26T03:25:25.587Z,50.90
2019-04-26T03:28:24.749Z,41.20
2019-04-26T03:31:03.163Z,38.60
2019-04-26T03:34:34.441Z,43.50
2019-04-26T03:37:21.829Z,46.33
2019-04-26T03:40:05.542Z,46.25
2019-04-26T03:43:07.639Z,39.33
2019-04-26T03:46:05.453Z,35.37
2019-04-26T03:48:53.870Z,39.10
2019-04-26T03:51:48.383Z,39.15
2019-04-26T03:54:22.754Z,45.40
2019-04-26T03:57:13.468Z,58.53
2019-04-26T04:00:26.057Z,43.42
2019-04-26T04:03:27.561Z,54.63
2019-04-26T04:05:58.706Z,52.50
2019-04-26T04:08:51.374Z,49.67
2019-04-26T04:11:24.695Z,53.02
2019-04-26T04:14:15.390Z,51.02
2019-04-26T04:17:22.322Z,46.20
2019-04-26T04:20:34.184Z,42.78
2019-04-26T04:23:16.738Z,52.08
2019-04-26T04:25:49.203Z,47.33
2019-04-26T04:29:18.553Z,48.92
2019-04-26T04:31:53.437Z,59.00
2019-04-26T04:34:35.784Z,58.38
2019-04-26T04:37:08.257Z,69.03
2019-04-26T04:40:15.257Z,61.58
2019-04-26T04:43:03.092Z,55.20
2019-04-26T04:46:30.187Z,46.88
2019-04-26T04:49:29.069Z,47.15
2019-04-26T04:52:16.694Z,42.95
2019-04-26T04:55:06.420Z,49.08
2019-04-26T04:57:57.971Z,51.43
2019-04-26T05:01:00.436Z,37.42
2019-04-26T05:03:48.904Z,45.63
2019-04-26T05:06:43.674Z,45.55
2019-04-26T05:09:23.089Z,37.23
2019-04-26T05:12:21.342Z,36.35
2019-04-26T05:15:20.618Z,43.63
2019-04-26T05:18:09.787Z,38.63
2019-04-26T05:21:11.039Z,45.35
2019-04-26T05:24:17.524Z,42.35
2019-04-26T05:27:37.098Z,38.78
2019-04-26T05:30:51.997Z,34.40
2019-04-26T05:33:40.566Z,33.80
2019-04-26T05:37:16.658Z,31.90
2019-04-26T05:40:08.520Z,37.08
2019-04-26T05:43:31.277Z,37.42
2019-04-26T05:46:45.896Z,31.57
2019-04-26T05:50:02.916Z,31.45
2019-04-26T05:53:11.674Z,29.05
2019-04-26T05:56:09.496Z,36.08
2019-04-26T05:59:09.258Z,36.58
2019-04-26T06:02:20.363Z,30.72
2019-04-26T06:05:42.690Z,28.05
2019-04-26T06:09:19.258Z,32.40
2019-04-26T06:12:00.937Z,33.40
2019-04-26T06:15:18.108Z,26.25
2019-04-26T06:18:25.998Z,31.62
2019-04-26T06:21:18.967Z,33.75
2019-04-26T06:24:06.916Z,33.18
2019-04-26T06:27:14.311Z,35.30
2019-04-26T06:30:20.231Z,32.60
2019-04-26T06:33:06.927Z,27.30
2019-04-26T06:35:40.982Z,28.30
2019-04-26T06:39:18.878Z,31.10
2019-04-26T06:42:20.301Z,35.43
2019-04-26T06:45:45.512Z,34.98
2019-04-26T06:48:38.211Z,29.82
2019-04-26T06:51:24.238Z,39.70
2019-04-26T06:54:08.325Z,30.30
2019-04-26T06:57:27.113Z,34.78
2019-04-26T07:00:21.436Z,29.70
2019-04-26T07:03:32.610Z,32.08
2019-04-26T07:06:06.528Z,29.00
2019-04-26T07:08:57.577Z,27.90
2019-04-26T07:12:44.697Z,31.00
2019-04-26T07:15:46.604Z,37.05
2019-04-26T07:18:30.629Z,32.45
2019-04-26T07:21:30.077Z,21.80
2019-04-26T07:24:50.795Z,26.15
2019-04-26T07:27:47.367Z,25.35
2019-04-26T07:30:41.125Z,25.97
2019-04-26T07:34:09.493Z,26.25
2019-04-26T07:37:20.845Z,27.85
2019-04-26T07:40:35.772Z,24.12
2019-04-26T07:43:45.399Z,26.15
2019-04-26T07:46:52.251Z,26.00
2019-04-26T07:50:09.436Z,26.52
2019-04-26T07:53:25.420Z,24.02
2019-04-26T07:56:27.281Z,20.72
2019-04-26T08:00:06.665Z,25.40
2019-04-26T08:03:02.175Z,30.27
2019-04-26T08:05:59.053Z,21.62
2019-04-26T08:08:34.303Z,21.90
2019-04-26T08:11:13.339Z,18.23
2019-04-26T08:14:04.632Z,20.60
2019-04-26T08:16:47.535Z,22.00
2019-04-26T08:19:21.826Z,32.23
2019-04-26T09:18:57.273Z,24.45
2019-04-26T09:21:51.771Z,19.55
2019-04-26T09:24:35.883Z,21.52
2019-04-26T09:27:24.478Z,21.37
2019-04-26T10:24:29.966Z,19.60
2019-04-26T10:27:03.263Z,16.35
2019-04-26T10:29:30.497Z,21.50
2019-04-26T10:32:00.037Z,17.20
2019-04-26T10:34:29.687Z,17.40
2019-04-26T10:37:01.508Z,18.65
2019-04-26T10:39:32.482Z,15.55
2019-04-26T10:42:01.401Z,15.18
2019-04-26T10:44:30.884Z,16.70
2019-04-26T10:47:04.343Z,14.33
2019-04-26T10:49:43.553Z,10.53
2019-04-26T10:52:19.622Z,9.38
2019-04-26T10:54:55.260Z,13.53
2019-04-26T10:57:33.729Z,8.30
2019-04-26T11:00:06.169Z,14.58
2019-04-26T11:02:35.879Z,13.03
2019-04-26T11:05:06.126Z,26.07
2019-04-26T11:07:35.729Z,14.23
2019-04-26T11:10:06.797Z,16.27
2019-04-26T11:12:39.607Z,17.00
2019-04-26T11:15:08.838Z,20.33
2019-04-26T11:17:38.278Z,13.87
2019-04-26T11:20:10.369Z,38.08
2019-04-26T11:22:39.449Z,29.20
2019-04-26T11:25:09.090Z,14.75
2019-04-26T11:27:40.215Z,22.50
2019-04-26T11:30:15.774Z,23.33
2019-04-26T11:32:42.588Z,28.47
2019-04-26T11:35:12.239Z,14.80
2019-04-26T11:37:46.345Z,17.62
2019-04-26T11:40:15.993Z,14.45
2019-04-26T11:42:45.950Z,19.77
2019-04-26T11:45:16.985Z,10.32
2019-04-26T11:47:56.297Z,15.51
2019-04-26T11:50:21.377Z,18.12
2019-04-26T11:52:50.902Z,10.60
2019-04-26T11:55:20.385Z,13.15
2019-04-26T11:57:49.940Z,17.02
2019-04-26T12:00:33.483Z,16.62
2019-04-26T12:03:04.828Z,11.75
2019-04-26T12:08:27.652Z,13.05
2019-04-26T12:10:58.048Z,13.55
2019-04-26T12:13:28.642Z,12.95
2019-04-26T12:15:59.643Z,18.07
2019-04-26T12:18:29.204Z,15.63
2019-04-26T12:21:01.027Z,22.32
2019-04-26T12:23:30.254Z,12.30
2019-04-26T12:25:59.707Z,11.53
2019-04-26T12:28:29.346Z,10.55
2019-04-26T12:31:00.235Z,13.85
2019-04-26T12:33:29.992Z,14.58
2019-04-26T12:35:59.467Z,28.50
2019-04-26T12:38:30.090Z,14.03
2019-04-26T12:41:01.157Z,12.98
2019-04-26T12:43:30.877Z,16.35
2019-04-26T12:46:27.175Z,11.50
2019-04-26T12:48:56.589Z,12.50
2019-04-26T12:51:26.041Z,12.82
2019-04-26T12:53:55.751Z,9.70
2019-04-26T12:56:26.709Z,14.80
2019-04-26T12:58:56.324Z,11.75
2019-04-26T13:01:26.043Z,12.07
2019-04-26T13:04:08.051Z,19.02
2019-04-26T13:06:46.342Z,16.57
2019-04-26T13:09:21.872Z,13.75
2019-04-26T13:12:11.125Z,19.55
2019-04-26T13:14:59.553Z,15.35
2019-04-26T13:17:58.443Z,14.18
2019-04-26T13:20:28.843Z,16.93
2019-04-26T13:22:59.061Z,12.93
2019-04-26T13:25:40.024Z,17.77
2019-04-26T13:28:00.010Z,16.77
2019-04-26T13:30:33.040Z,17.45
2019-04-26T13:33:00.565Z,16.62
2019-04-26T13:35:30.022Z,15.68
2019-04-26T13:37:59.679Z,19.80
2019-04-26T13:40:30.537Z,19.87
2019-04-26T13:43:00.194Z,24.87
2019-04-26T13:45:41.007Z,16.65
2019-04-26T13:48:47.849Z,13.45
2019-04-26T13:51:18.840Z,14.13
2019-04-26T13:53:48.647Z,13.03
2019-04-26T13:56:18.095Z,14.50
2019-04-26T14:12:46.239Z,17.10
2019-04-26T14:15:16.388Z,20.90
2019-04-26T14:17:45.869Z,19.55
2019-04-26T14:20:15.490Z,22.15
2019-04-26T14:22:56.639Z,21.33
2019-04-26T14:25:30.679Z,17.60
2019-04-26T14:28:00.281Z,21.82
2019-04-26T14:30:29.768Z,12.53
2019-04-26T14:32:59.350Z,19.57
2019-04-26T14:35:28.914Z,30.10
2019-04-26T14:37:58.406Z,17.02
2019-04-26T14:40:28.216Z,23.45
2019-04-26T14:43:06.650Z,22.20
2019-04-26T14:45:28.834Z,17.15
2019-04-26T14:48:00.128Z,21.80
2019-04-26T14:50:33.916Z,20.32
2019-04-26T14:53:03.643Z,15.70
2019-04-26T14:55:33.296Z,18.32
2019-04-26T14:58:02.758Z,36.30
2019-04-26T15:00:34.743Z,25.30
2019-04-26T15:03:29.220Z,28.23
2019-04-26T15:06:26.677Z,19.92
2019-04-26T15:08:56.534Z,16.27
2019-04-26T15:11:27.066Z,24.90
2019-04-26T15:13:56.631Z,25.55
2019-04-26T15:16:26.352Z,18.52
2019-04-26T15:18:56.035Z,22.07
2019-04-26T15:21:27.364Z,17.62
2019-04-26T15:23:59.304Z,19.48
2019-04-26T15:26:29.939Z,22.87
2019-04-26T15:28:59.531Z,25.02
2019-04-26T15:31:29.013Z,26.00
2019-04-26T15:33:58.753Z,16.70
2019-04-26T15:36:28.311Z,19.07
2019-04-26T15:38:58.871Z,22.27
2019-04-26T15:41:43.010Z,20.35
2019-04-26T15:44:24.789Z,16.57
2019-04-26T15:47:19.562Z,17.57
2019-04-26T15:49:53.107Z,18.48
2019-04-26T15:52:22.778Z,30.15
2019-04-26T15:54:58.125Z,23.98
2019-04-26T15:57:24.475Z,26.40
2019-04-26T15:59:58.114Z,21.00
2019-04-26T16:02:26.336Z,17.75
2019-04-26T16:04:56.059Z,18.48
2019-04-26T16:07:28.783Z,15.50
2019-04-26T16:09:57.591Z,20.10
2019-04-26T16:12:27.458Z,21.10
2019-04-26T16:14:58.665Z,21.87
2019-04-26T16:17:28.129Z,21.95
2019-04-26T16:20:00.158Z,22.90
2019-04-26T16:22:31.684Z,21.25
2019-04-26T16:25:05.217Z,19.57
2019-04-26T16:27:34.554Z,18.42
2019-04-26T16:30:37.474Z,25.20
2019-04-26T16:33:20.371Z,18.90
2019-04-26T16:35:52.859Z,33.13
2019-04-26T16:38:38.339Z,24.00
2019-04-26T16:41:07.895Z,27.00
2019-04-26T16:43:40.698Z,28.47
2019-04-26T16:48:40.281Z,21.20
2019-04-26T16:51:09.787Z,27.95
2019-04-26T16:53:58.815Z,25.20
2019-04-26T16:56:10.901Z,23.00
2019-04-26T16:58:44.923Z,16.48
2019-04-26T17:01:15.032Z,15.48
2019-04-26T17:03:47.971Z,15.28
2019-04-26T17:06:15.515Z,27.07
2019-04-26T17:08:51.551Z,20.48
2019-04-26T17:09:37.394Z,26.77
2019-04-26T17:11:16.947Z,21.27
2019-04-26T17:13:50.846Z,21.25
2019-04-26T17:16:17.858Z,22.25
2019-04-26T17:18:47.464Z,24.67
2019-04-26T17:21:22.284Z,30.45
2019-04-26T17:24:15.134Z,27.07
2019-04-26T17:27:00.082Z,30.85
2019-04-26T17:29:29.612Z,38.88
2019-04-26T17:31:59.559Z,39.48
2019-04-26T17:34:30.277Z,50.08
2019-04-26T17:37:00.171Z,24.23
2019-04-26T17:39:30.441Z,40.80
2019-04-26T17:42:01.228Z,25.62
2019-04-26T17:44:32.648Z,20.30
2019-04-26T17:47:02.235Z,31.30
2019-04-26T17:49:34.457Z,34.58
2019-04-26T17:52:03.081Z,47.80
2019-04-26T17:54:46.255Z,40.00
2019-04-26T17:57:08.882Z,40.80
2019-04-26T17:59:36.862Z,28.50
2019-04-26T18:02:18.346Z,33.85
2019-04-26T18:04:40.848Z,42.13
2019-04-26T18:07:34.616Z,35.20
2019-04-26T18:09:45.927Z,27.25
2019-04-26T18:12:14.680Z,36.98
2019-04-26T18:14:44.503Z,30.37
2019-04-26T18:17:26.165Z,36.28
2019-04-26T18:20:13.067Z,72.70
2019-04-26T18:23:05.529Z,31.57
2019-04-26T18:25:36.104Z,26.05
2019-04-26T18:28:08.676Z,28.23
2019-04-26T18:30:40.307Z,25.48
2019-04-26T18:33:08.747Z,31.95
2019-04-26T18:35:38.605Z,31.15
2019-04-26T18:38:08.500Z,34.73
2019-04-26T18:40:58.981Z,31.77
2019-04-26T18:43:12.545Z,38.25
2019-04-26T18:45:42.820Z,31.23
2019-04-26T18:48:13.899Z,30.97
2019-04-26T18:50:45.797Z,35.90
2019-04-26T18:53:41.036Z,39.00
2019-04-26T18:56:12.537Z,38.23
2019-04-26T18:58:43.207Z,45.88
2019-04-26T19:01:14.496Z,31.37
2019-04-26T19:03:44.004Z,26.53
2019-04-26T19:06:27.036Z,24.47
2019-04-26T19:08:49.794Z,29.50
2019-04-26T19:11:15.908Z,25.97
2019-04-26T19:14:06.425Z,27.53
2019-04-26T19:16:59.219Z,35.43
2019-04-26T19:19:38.991Z,31.93
2019-04-26T19:22:09.408Z,36.03
2019-04-26T19:24:41.920Z,31.50
2019-04-26T19:27:12.561Z,35.63
2019-04-26T19:29:43.335Z,31.17
2019-04-26T19:32:12.983Z,42.20
2019-04-26T19:34:42.410Z,31.80
2019-04-26T19:37:13.043Z,38.63
2019-04-26T19:39:42.786Z,26.33
2019-04-26T19:42:12.622Z,27.27
2019-04-26T19:44:42.158Z,33.83
2019-04-26T19:47:22.683Z,35.10
2019-04-26T19:50:03.168Z,32.70
2019-04-26T19:52:44.861Z,42.63
2019-04-26T19:55:31.886Z,43.00
2019-04-26T19:58:09.664Z,33.17
2019-04-26T20:00:43.419Z,31.67
2019-04-26T20:03:13.457Z,38.53
2019-04-26T20:05:44.147Z,30.33
2019-04-26T20:08:14.056Z,26.87
2019-04-26T20:10:45.834Z,34.70
2019-04-26T20:13:16.292Z,32.23
2019-04-26T20:15:46.382Z,32.73
2019-04-26T20:18:17.469Z,28.87
2019-04-26T20:20:47.317Z,28.63
2019-04-26T20:23:19.547Z,37.17
2019-04-26T20:25:49.087Z,38.53
2019-04-26T20:28:18.671Z,35.10
2019-04-26T20:31:09.916Z,29.40
2019-04-26T20:33:42.426Z,26.40
2019-04-26T20:36:12.590Z,36.67
2019-04-26T20:38:45.723Z,30.27
2019-04-26T20:41:14.912Z,43.40
2019-04-26T20:43:48.664Z,33.07
2019-04-26T20:46:15.879Z,35.43
2019-04-26T20:48:45.460Z,41.33
2019-04-26T20:51:17.959Z,50.07
2019-04-26T20:53:46.150Z,39.97
2019-04-26T20:56:18.186Z,34.37
2019-04-26T20:58:47.383Z,30.70
2019-04-26T21:01:17.634Z,37.10
2019-04-26T21:03:47.367Z,53.90
2019-04-26T21:06:16.858Z,47.83
2019-04-26T21:08:46.399Z,41.30
2019-04-26T21:11:16.427Z,44.37
2019-04-26T21:13:46.468Z,37.00
2019-04-26T21:16:15.961Z,34.77
2019-04-26T21:18:45.778Z,40.30
2019-04-26T21:21:16.148Z,28.27
2019-04-26T21:23:48.432Z,28.93
2019-04-26T21:26:36.900Z,29.77
2019-04-26T21:29:28.587Z,33.07
2019-04-26T21:32:16.464Z,31.83
2019-04-26T21:34:50.533Z,28.03
2019-04-26T21:37:28.240Z,31.83
2019-04-26T21:40:03.936Z,32.33
2019-04-26T21:42:33.618Z,22.00
2019-04-26T21:45:03.544Z,26.80
2019-04-26T21:47:35.541Z,30.13
2019-04-26T21:50:06.231Z,29.77
2019-04-26T21:52:35.761Z,34.63
2019-04-26T21:55:06.578Z,34.93
2019-04-26T21:57:36.325Z,36.40
2019-04-26T22:00:15.863Z,85.67
2019-04-26T22:02:45.962Z,39.70
2019-04-26T22:05:16.045Z,39.23
2019-04-26T22:07:47.731Z,31.43
2019-04-26T22:10:24.484Z,29.47
2019-04-26T22:12:55.331Z,36.07
2019-04-26T22:15:43.803Z,40.03
2019-04-26T22:18:21.668Z,44.50
2019-04-26T22:21:12.836Z,41.93
2019-04-26T22:24:00.457Z,38.30
2019-04-26T22:26:30.057Z,36.90
2019-04-26T22:29:00.237Z,87.50
2019-04-26T22:31:30.170Z,94.23
2019-04-26T22:34:01.400Z,59.40
2019-04-26T22:36:33.658Z,49.00
2019-04-26T22:39:04.615Z,48.70
2019-04-26T22:41:34.042Z,38.47
2019-04-26T22:44:08.923Z,35.60
2019-04-26T22:47:15.439Z,56.93
2019-04-26T22:49:45.351Z,45.03
2019-04-26T22:52:16.355Z,35.17
2019-04-26T22:54:47.497Z,34.87
2019-04-26T22:57:18.239Z,36.63
2019-04-26T22:59:50.166Z,30.23
2019-04-26T23:02:25.839Z,39.87
2019-04-26T23:04:50.549Z,44.63
2019-04-26T23:07:23.327Z,33.47
2019-04-26T23:09:55.129Z,37.47
2019-04-26T23:12:47.890Z,36.07
2019-04-26T23:15:39.848Z,35.10
2019-04-26T23:18:46.569Z,41.20
2019-04-26T23:21:25.052Z,24.30
2019-04-26T23:23:54.740Z,25.47
2019-04-26T23:26:24.675Z,24.17
2019-04-26T23:28:54.128Z,26.73
2019-04-26T23:31:23.780Z,23.67
2019-04-26T23:33:53.897Z,29.33
2019-04-26T23:36:24.062Z,27.10
2019-04-26T23:38:53.787Z,26.93
2019-04-26T23:41:23.601Z,26.13
2019-04-26T23:43:56.834Z,26.40
2019-04-26T23:46:25.948Z,25.40
2019-04-26T23:48:55.598Z,35.27
2019-04-26T23:51:26.223Z,27.03
2019-04-26T23:53:57.804Z,27.03
2019-04-26T23:56:30.091Z,28.90
2019-04-26T23:58:59.512Z,26.97
